KWST/WST METAR and TAF weather

Enter ICAO airport designator
Station Type Date Time Source
KWST METAR 2022/05/26 03:53 UTC NOAA

KWST 260353Z AUTO 00000KT 10SM CLR 09/07 A3039 RMK AO2 SLP289 T00890067


Station Type Date Time Source
KWST Decoded METAR 2022/05/26 03:53 UTC NOAA

WESTERLY STATE AIRPORT, RI, United States (KWST) 41-21N 071-48W 21M
May 25, 2022 - 11:53 PM EDT / 2022.05.26 0353 UTC
Wind: Calm:0
Visibility: 10 mile(s):0
Sky conditions: clear
Temperature: 48.0 F (8.9 C)
Dew Point: 44.1 F (6.7 C)
Relative Humidity: 86%
Pressure (altimeter): 30.39 in. Hg (1029 hPa)
ob: KWST 260353Z AUTO 00000KT 10SM CLR 09/07 A3039 RMK AO2 SLP289 T00890067
cycle: 4

Station Type Date Time Source
KWST TAF UTC NOAA

Error!

Example: see airport list